sensor_id;sensor_type;location;lat;lon;timestamp;P1;durP1;ratioP1;P2;durP2;ratioP2
18776;SDS011;9517;51.174;4.160;2023-03-23T00:02:20;11.87;;;3.67;;
18776;SDS011;9517;51.174;4.160;2023-03-23T00:04:50;12.40;;;3.70;;
18776;SDS011;9517;51.174;4.160;2023-03-23T00:07:18;8.77;;;2.90;;
18776;SDS011;9517;51.174;4.160;2023-03-23T00:09:46;8.93;;;3.13;;
18776;SDS011;9517;51.174;4.160;2023-03-23T00:12:18;8.33;;;2.80;;
18776;SDS011;9517;51.174;4.160;2023-03-23T00:14:46;8.83;;;3.57;;
18776;SDS011;9517;51.174;4.160;2023-03-23T00:17:13;10.50;;;3.80;;
18776;SDS011;9517;51.174;4.160;2023-03-23T00:19:42;11.57;;;3.80;;
18776;SDS011;9517;51.174;4.160;2023-03-23T00:22:12;9.93;;;2.93;;
18776;SDS011;9517;51.174;4.160;2023-03-23T00:24:40;6.97;;;3.27;;
18776;SDS011;9517;51.174;4.160;2023-03-23T00:27:09;9.00;;;4.00;;
18776;SDS011;9517;51.174;4.160;2023-03-23T00:29:38;9.67;;;3.37;;
18776;SDS011;9517;51.174;4.160;2023-03-23T00:32:05;11.10;;;4.40;;
18776;SDS011;9517;51.174;4.160;2023-03-23T00:34:37;10.10;;;3.57;;
18776;SDS011;9517;51.174;4.160;2023-03-23T00:37:06;11.80;;;4.00;;
18776;SDS011;9517;51.174;4.160;2023-03-23T00:39:34;10.47;;;3.33;;
18776;SDS011;9517;51.174;4.160;2023-03-23T00:42:02;8.53;;;3.53;;
18776;SDS011;9517;51.174;4.160;2023-03-23T00:44:31;9.77;;;3.67;;
18776;SDS011;9517;51.174;4.160;2023-03-23T00:47:00;10.77;;;3.90;;
18776;SDS011;9517;51.174;4.160;2023-03-23T00:49:28;9.87;;;4.20;;
18776;SDS011;9517;51.174;4.160;2023-03-23T00:51:56;10.10;;;4.57;;
18776;SDS011;9517;51.174;4.160;2023-03-23T00:54:25;12.23;;;4.13;;
18776;SDS011;9517;51.174;4.160;2023-03-23T00:56:53;9.77;;;3.90;;
18776;SDS011;9517;51.174;4.160;2023-03-23T00:59:20;8.33;;;3.63;;
18776;SDS011;9517;51.174;4.160;2023-03-23T01:01:48;8.60;;;3.60;;
18776;SDS011;9517;51.174;4.160;2023-03-23T01:04:16;9.97;;;3.70;;
18776;SDS011;9517;51.174;4.160;2023-03-23T01:06:43;10.30;;;3.73;;
18776;SDS011;9517;51.174;4.160;2023-03-23T01:09:15;12.70;;;3.67;;
18776;SDS011;9517;51.174;4.160;2023-03-23T01:11:45;10.13;;;3.77;;
18776;SDS011;9517;51.174;4.160;2023-03-23T01:14:14;8.83;;;3.90;;
18776;SDS011;9517;51.174;4.160;2023-03-23T01:16:42;9.17;;;3.50;;
18776;SDS011;9517;51.174;4.160;2023-03-23T01:19:09;9.97;;;3.13;;
18776;SDS011;9517;51.174;4.160;2023-03-23T01:21:36;8.73;;;2.90;;
18776;SDS011;9517;51.174;4.160;2023-03-23T01:24:04;8.87;;;3.23;;
18776;SDS011;9517;51.174;4.160;2023-03-23T01:26:31;9.33;;;2.90;;
18776;SDS011;9517;51.174;4.160;2023-03-23T01:29:00;8.70;;;2.57;;
18776;SDS011;9517;51.174;4.160;2023-03-23T01:31:27;6.17;;;2.33;;
18776;SDS011;9517;51.174;4.160;2023-03-23T01:33:54;9.00;;;2.73;;
18776;SDS011;9517;51.174;4.160;2023-03-23T01:36:22;7.60;;;2.40;;
18776;SDS011;9517;51.174;4.160;2023-03-23T01:38:51;8.93;;;2.80;;
18776;SDS011;9517;51.174;4.160;2023-03-23T01:41:19;5.40;;;2.23;;
18776;SDS011;9517;51.174;4.160;2023-03-23T01:43:56;7.57;;;2.43;;
18776;SDS011;9517;51.174;4.160;2023-03-23T01:46:28;7.10;;;2.60;;
18776;SDS011;9517;51.174;4.160;2023-03-23T01:48:57;7.37;;;2.20;;
18776;SDS011;9517;51.174;4.160;2023-03-23T01:51:31;7.37;;;2.83;;
18776;SDS011;9517;51.174;4.160;2023-03-23T01:54:00;7.30;;;2.53;;
18776;SDS011;9517;51.174;4.160;2023-03-23T01:56:31;6.03;;;2.20;;
18776;SDS011;9517;51.174;4.160;2023-03-23T01:59:03;7.27;;;2.57;;
18776;SDS011;9517;51.174;4.160;2023-03-23T02:01:32;6.80;;;2.30;;
18776;SDS011;9517;51.174;4.160;2023-03-23T02:04:03;6.07;;;2.27;;
18776;SDS011;9517;51.174;4.160;2023-03-23T02:06:32;7.03;;;2.30;;
18776;SDS011;9517;51.174;4.160;2023-03-23T02:08:59;7.43;;;2.37;;
18776;SDS011;9517;51.174;4.160;2023-03-23T02:11:27;7.67;;;2.50;;
18776;SDS011;9517;51.174;4.160;2023-03-23T02:13:54;6.40;;;2.50;;
18776;SDS011;9517;51.174;4.160;2023-03-23T02:16:25;6.30;;;2.43;;
18776;SDS011;9517;51.174;4.160;2023-03-23T02:19:02;8.07;;;2.40;;
18776;SDS011;9517;51.174;4.160;2023-03-23T02:21:59;5.53;;;2.00;;
18776;SDS011;9517;51.174;4.160;2023-03-23T02:24:58;8.07;;;2.00;;
18776;SDS011;9517;51.174;4.160;2023-03-23T02:30:49;7.23;;;1.70;;
18776;SDS011;9517;51.174;4.160;2023-03-23T02:33:35;4.83;;;1.40;;
18776;SDS011;9517;51.174;4.160;2023-03-23T02:36:10;5.23;;;1.43;;
18776;SDS011;9517;51.174;4.160;2023-03-23T02:38:43;5.40;;;1.80;;
18776;SDS011;9517;51.174;4.160;2023-03-23T02:41:16;6.97;;;1.87;;
18776;SDS011;9517;51.174;4.160;2023-03-23T02:43:46;8.73;;;1.63;;
18776;SDS011;9517;51.174;4.160;2023-03-23T02:46:15;8.87;;;2.07;;
18776;SDS011;9517;51.174;4.160;2023-03-23T02:48:44;9.47;;;2.00;;
18776;SDS011;9517;51.174;4.160;2023-03-23T02:51:16;8.73;;;1.80;;
18776;SDS011;9517;51.174;4.160;2023-03-23T02:53:45;6.23;;;1.57;;
18776;SDS011;9517;51.174;4.160;2023-03-23T02:56:14;12.37;;;1.70;;
18776;SDS011;9517;51.174;4.160;2023-03-23T02:58:42;12.27;;;2.00;;
18776;SDS011;9517;51.174;4.160;2023-03-23T03:01:14;12.27;;;1.70;;
18776;SDS011;9517;51.174;4.160;2023-03-23T03:03:59;9.33;;;1.90;;
18776;SDS011;9517;51.174;4.160;2023-03-23T03:06:32;11.97;;;2.00;;
18776;SDS011;9517;51.174;4.160;2023-03-23T03:09:07;14.73;;;2.53;;
18776;SDS011;9517;51.174;4.160;2023-03-23T03:11:44;10.63;;;1.97;;
18776;SDS011;9517;51.174;4.160;2023-03-23T03:14:16;7.17;;;1.73;;
18776;SDS011;9517;51.174;4.160;2023-03-23T03:16:49;11.33;;;2.03;;
18776;SDS011;9517;51.174;4.160;2023-03-23T03:19:25;9.10;;;1.83;;
18776;SDS011;9517;51.174;4.160;2023-03-23T03:21:56;11.63;;;2.17;;
18776;SDS011;9517;51.174;4.160;2023-03-23T03:24:25;8.93;;;1.67;;
18776;SDS011;9517;51.174;4.160;2023-03-23T03:26:56;13.77;;;2.03;;
18776;SDS011;9517;51.174;4.160;2023-03-23T03:29:25;6.97;;;1.50;;
18776;SDS011;9517;51.174;4.160;2023-03-23T03:31:56;12.03;;;2.17;;
18776;SDS011;9517;51.174;4.160;2023-03-23T03:34:27;12.33;;;2.17;;
18776;SDS011;9517;51.174;4.160;2023-03-23T03:36:57;11.53;;;1.87;;
18776;SDS011;9517;51.174;4.160;2023-03-23T03:39:26;8.03;;;1.60;;
18776;SDS011;9517;51.174;4.160;2023-03-23T03:41:53;9.60;;;2.03;;
18776;SDS011;9517;51.174;4.160;2023-03-23T03:44:21;10.97;;;2.10;;
18776;SDS011;9517;51.174;4.160;2023-03-23T03:46:48;8.73;;;1.90;;
18776;SDS011;9517;51.174;4.160;2023-03-23T03:49:15;8.00;;;2.03;;
18776;SDS011;9517;51.174;4.160;2023-03-23T03:51:44;10.13;;;2.03;;
18776;SDS011;9517;51.174;4.160;2023-03-23T03:54:11;9.27;;;1.97;;
18776;SDS011;9517;51.174;4.160;2023-03-23T03:56:38;9.37;;;2.03;;
18776;SDS011;9517;51.174;4.160;2023-03-23T03:59:06;14.50;;;2.40;;
18776;SDS011;9517;51.174;4.160;2023-03-23T04:01:34;13.30;;;2.20;;
18776;SDS011;9517;51.174;4.160;2023-03-23T04:04:03;7.40;;;1.77;;
18776;SDS011;9517;51.174;4.160;2023-03-23T04:06:32;11.10;;;2.10;;
18776;SDS011;9517;51.174;4.160;2023-03-23T04:09:04;10.20;;;2.20;;
18776;SDS011;9517;51.174;4.160;2023-03-23T04:11:32;7.07;;;1.83;;
18776;SDS011;9517;51.174;4.160;2023-03-23T04:13:59;9.43;;;2.00;;
18776;SDS011;9517;51.174;4.160;2023-03-23T04:16:27;8.37;;;1.90;;
18776;SDS011;9517;51.174;4.160;2023-03-23T04:18:55;8.37;;;2.10;;
18776;SDS011;9517;51.174;4.160;2023-03-23T04:21:23;8.63;;;2.10;;
18776;SDS011;9517;51.174;4.160;2023-03-23T04:23:54;8.00;;;1.73;;
18776;SDS011;9517;51.174;4.160;2023-03-23T04:26:25;11.97;;;2.10;;
18776;SDS011;9517;51.174;4.160;2023-03-23T04:28:53;12.73;;;2.40;;
18776;SDS011;9517;51.174;4.160;2023-03-23T04:31:21;8.83;;;2.20;;
18776;SDS011;9517;51.174;4.160;2023-03-23T04:33:49;8.60;;;2.10;;
18776;SDS011;9517;51.174;4.160;2023-03-23T04:36:18;9.43;;;2.10;;
18776;SDS011;9517;51.174;4.160;2023-03-23T04:38:47;12.63;;;2.10;;
18776;SDS011;9517;51.174;4.160;2023-03-23T04:41:19;12.00;;;2.20;;
18776;SDS011;9517;51.174;4.160;2023-03-23T04:43:49;13.23;;;2.20;;
18776;SDS011;9517;51.174;4.160;2023-03-23T04:46:21;9.47;;;2.00;;
18776;SDS011;9517;51.174;4.160;2023-03-23T04:48:48;19.20;;;2.60;;
18776;SDS011;9517;51.174;4.160;2023-03-23T04:51:15;10.77;;;2.27;;
18776;SDS011;9517;51.174;4.160;2023-03-23T04:53:43;11.47;;;2.13;;
18776;SDS011;9517;51.174;4.160;2023-03-23T04:56:10;12.10;;;2.10;;
18776;SDS011;9517;51.174;4.160;2023-03-23T04:58:38;14.30;;;2.27;;
18776;SDS011;9517;51.174;4.160;2023-03-23T05:01:07;15.07;;;2.40;;
18776;SDS011;9517;51.174;4.160;2023-03-23T05:03:34;11.27;;;1.70;;
18776;SDS011;9517;51.174;4.160;2023-03-23T05:06:01;12.17;;;1.93;;
18776;SDS011;9517;51.174;4.160;2023-03-23T05:08:29;10.43;;;1.93;;
18776;SDS011;9517;51.174;4.160;2023-03-23T05:10:57;11.33;;;1.93;;
18776;SDS011;9517;51.174;4.160;2023-03-23T05:13:25;10.30;;;2.10;;
18776;SDS011;9517;51.174;4.160;2023-03-23T05:15:53;9.13;;;1.90;;
18776;SDS011;9517;51.174;4.160;2023-03-23T05:18:22;10.87;;;2.37;;
18776;SDS011;9517;51.174;4.160;2023-03-23T05:20:51;15.83;;;2.13;;
18776;SDS011;9517;51.174;4.160;2023-03-23T05:23:19;10.00;;;2.23;;
18776;SDS011;9517;51.174;4.160;2023-03-23T05:25:52;10.43;;;1.83;;
18776;SDS011;9517;51.174;4.160;2023-03-23T05:28:19;15.53;;;2.40;;
18776;SDS011;9517;51.174;4.160;2023-03-23T05:30:47;11.87;;;2.30;;
18776;SDS011;9517;51.174;4.160;2023-03-23T05:33:15;13.43;;;2.10;;
18776;SDS011;9517;51.174;4.160;2023-03-23T05:35:43;12.47;;;2.20;;
18776;SDS011;9517;51.174;4.160;2023-03-23T05:38:12;9.20;;;1.80;;
18776;SDS011;9517;51.174;4.160;2023-03-23T05:40:39;7.73;;;1.73;;
18776;SDS011;9517;51.174;4.160;2023-03-23T05:43:07;12.57;;;2.30;;
18776;SDS011;9517;51.174;4.160;2023-03-23T05:45:35;15.07;;;2.80;;
18776;SDS011;9517;51.174;4.160;2023-03-23T05:48:02;9.47;;;2.20;;
18776;SDS011;9517;51.174;4.160;2023-03-23T05:50:29;14.53;;;2.13;;
18776;SDS011;9517;51.174;4.160;2023-03-23T05:52:58;14.40;;;2.47;;
18776;SDS011;9517;51.174;4.160;2023-03-23T05:55:25;14.37;;;2.43;;
18776;SDS011;9517;51.174;4.160;2023-03-23T05:57:53;13.07;;;2.60;;
18776;SDS011;9517;51.174;4.160;2023-03-23T06:00:20;12.60;;;2.47;;
18776;SDS011;9517;51.174;4.160;2023-03-23T06:02:48;12.03;;;2.57;;
18776;SDS011;9517;51.174;4.160;2023-03-23T06:05:17;14.83;;;2.90;;
18776;SDS011;9517;51.174;4.160;2023-03-23T06:07:44;11.40;;;2.87;;
18776;SDS011;9517;51.174;4.160;2023-03-23T06:10:14;18.60;;;3.30;;
18776;SDS011;9517;51.174;4.160;2023-03-23T06:12:41;15.63;;;3.30;;
18776;SDS011;9517;51.174;4.160;2023-03-23T06:15:09;18.77;;;2.47;;
18776;SDS011;9517;51.174;4.160;2023-03-23T06:17:36;9.23;;;1.90;;
18776;SDS011;9517;51.174;4.160;2023-03-23T06:20:04;8.23;;;1.70;;
18776;SDS011;9517;51.174;4.160;2023-03-23T06:22:35;9.20;;;1.47;;
18776;SDS011;9517;51.174;4.160;2023-03-23T06:25:03;14.67;;;1.90;;
18776;SDS011;9517;51.174;4.160;2023-03-23T06:27:32;10.10;;;1.70;;
18776;SDS011;9517;51.174;4.160;2023-03-23T06:30:00;11.03;;;1.83;;
18776;SDS011;9517;51.174;4.160;2023-03-23T06:32:28;10.97;;;2.17;;
18776;SDS011;9517;51.174;4.160;2023-03-23T06:34:56;9.03;;;1.83;;
18776;SDS011;9517;51.174;4.160;2023-03-23T06:37:24;12.57;;;2.20;;
18776;SDS011;9517;51.174;4.160;2023-03-23T06:39:51;11.03;;;2.00;;
18776;SDS011;9517;51.174;4.160;2023-03-23T06:42:19;13.77;;;2.07;;
18776;SDS011;9517;51.174;4.160;2023-03-23T06:44:47;10.03;;;1.73;;
18776;SDS011;9517;51.174;4.160;2023-03-23T06:47:14;11.60;;;1.57;;
18776;SDS011;9517;51.174;4.160;2023-03-23T06:49:41;13.27;;;2.33;;
18776;SDS011;9517;51.174;4.160;2023-03-23T06:52:08;12.90;;;2.10;;
18776;SDS011;9517;51.174;4.160;2023-03-23T06:54:35;9.13;;;1.60;;
18776;SDS011;9517;51.174;4.160;2023-03-23T06:57:02;11.90;;;2.00;;
18776;SDS011;9517;51.174;4.160;2023-03-23T06:59:31;10.10;;;1.75;;
18776;SDS011;9517;51.174;4.160;2023-03-23T07:02:04;11.40;;;1.90;;
18776;SDS011;9517;51.174;4.160;2023-03-23T07:04:34;11.70;;;2.07;;
18776;SDS011;9517;51.174;4.160;2023-03-23T07:07:03;16.83;;;2.63;;
18776;SDS011;9517;51.174;4.160;2023-03-23T07:09:30;10.27;;;2.03;;
18776;SDS011;9517;51.174;4.160;2023-03-23T07:11:58;10.47;;;2.10;;
18776;SDS011;9517;51.174;4.160;2023-03-23T07:14:25;9.80;;;1.83;;
18776;SDS011;9517;51.174;4.160;2023-03-23T07:16:54;11.93;;;1.70;;
18776;SDS011;9517;51.174;4.160;2023-03-23T07:19:28;11.17;;;2.00;;
18776;SDS011;9517;51.174;4.160;2023-03-23T07:21:55;8.73;;;1.40;;
18776;SDS011;9517;51.174;4.160;2023-03-23T07:24:23;8.33;;;1.63;;
18776;SDS011;9517;51.174;4.160;2023-03-23T07:26:51;10.77;;;1.73;;
18776;SDS011;9517;51.174;4.160;2023-03-23T07:29:18;6.80;;;1.40;;
18776;SDS011;9517;51.174;4.160;2023-03-23T07:31:46;10.20;;;1.53;;
18776;SDS011;9517;51.174;4.160;2023-03-23T07:34:13;8.13;;;1.50;;
18776;SDS011;9517;51.174;4.160;2023-03-23T07:36:41;12.03;;;1.57;;
18776;SDS011;9517;51.174;4.160;2023-03-23T07:39:09;10.03;;;1.90;;
18776;SDS011;9517;51.174;4.160;2023-03-23T07:41:37;8.87;;;1.67;;
18776;SDS011;9517;51.174;4.160;2023-03-23T07:44:04;10.07;;;1.63;;
18776;SDS011;9517;51.174;4.160;2023-03-23T07:46:32;7.73;;;1.40;;
18776;SDS011;9517;51.174;4.160;2023-03-23T07:48:59;7.27;;;1.53;;
18776;SDS011;9517;51.174;4.160;2023-03-23T07:51:30;14.97;;;2.03;;
18776;SDS011;9517;51.174;4.160;2023-03-23T07:53:59;12.73;;;1.67;;
18776;SDS011;9517;51.174;4.160;2023-03-23T07:56:32;11.23;;;1.73;;
18776;SDS011;9517;51.174;4.160;2023-03-23T07:59:00;14.27;;;2.53;;
18776;SDS011;9517;51.174;4.160;2023-03-23T08:01:27;10.03;;;1.70;;
18776;SDS011;9517;51.174;4.160;2023-03-23T08:03:55;7.53;;;1.57;;
18776;SDS011;9517;51.174;4.160;2023-03-23T08:06:22;9.90;;;1.47;;
18776;SDS011;9517;51.174;4.160;2023-03-23T08:08:50;13.40;;;2.20;;
18776;SDS011;9517;51.174;4.160;2023-03-23T08:11:19;13.33;;;2.33;;
18776;SDS011;9517;51.174;4.160;2023-03-23T08:13:47;12.93;;;1.97;;
18776;SDS011;9517;51.174;4.160;2023-03-23T08:16:14;10.13;;;2.17;;
18776;SDS011;9517;51.174;4.160;2023-03-23T08:18:41;11.43;;;2.03;;
18776;SDS011;9517;51.174;4.160;2023-03-23T08:21:08;17.03;;;2.73;;
18776;SDS011;9517;51.174;4.160;2023-03-23T08:23:35;10.63;;;2.13;;
18776;SDS011;9517;51.174;4.160;2023-03-23T08:26:03;11.27;;;2.10;;
18776;SDS011;9517;51.174;4.160;2023-03-23T08:28:33;12.33;;;1.87;;
18776;SDS011;9517;51.174;4.160;2023-03-23T08:31:05;10.77;;;1.83;;
18776;SDS011;9517;51.174;4.160;2023-03-23T08:33:35;13.50;;;2.60;;
18776;SDS011;9517;51.174;4.160;2023-03-23T08:36:07;12.17;;;2.00;;
18776;SDS011;9517;51.174;4.160;2023-03-23T08:38:35;7.60;;;1.53;;
18776;SDS011;9517;51.174;4.160;2023-03-23T08:41:03;14.93;;;2.13;;
18776;SDS011;9517;51.174;4.160;2023-03-23T08:43:34;12.40;;;2.07;;
18776;SDS011;9517;51.174;4.160;2023-03-23T08:46:03;12.30;;;1.90;;
18776;SDS011;9517;51.174;4.160;2023-03-23T08:48:34;10.53;;;2.20;;
18776;SDS011;9517;51.174;4.160;2023-03-23T08:51:01;12.10;;;2.40;;
18776;SDS011;9517;51.174;4.160;2023-03-23T08:53:29;11.83;;;2.00;;
18776;SDS011;9517;51.174;4.160;2023-03-23T08:55:56;9.00;;;1.77;;
18776;SDS011;9517;51.174;4.160;2023-03-23T08:58:30;9.00;;;1.67;;
18776;SDS011;9517;51.174;4.160;2023-03-23T09:00:59;11.47;;;1.77;;
18776;SDS011;9517;51.174;4.160;2023-03-23T09:03:26;14.57;;;2.80;;
18776;SDS011;9517;51.174;4.160;2023-03-23T09:05:53;12.73;;;2.57;;
18776;SDS011;9517;51.174;4.160;2023-03-23T09:08:24;25.57;;;3.13;;
18776;SDS011;9517;51.174;4.160;2023-03-23T09:10:53;11.17;;;2.03;;
18776;SDS011;9517;51.174;4.160;2023-03-23T09:13:21;13.43;;;2.20;;
18776;SDS011;9517;51.174;4.160;2023-03-23T09:15:49;27.07;;;3.60;;
18776;SDS011;9517;51.174;4.160;2023-03-23T09:18:18;39.53;;;5.23;;
18776;SDS011;9517;51.174;4.160;2023-03-23T09:20:45;10.27;;;2.00;;
18776;SDS011;9517;51.174;4.160;2023-03-23T09:23:15;17.30;;;2.80;;
18776;SDS011;9517;51.174;4.160;2023-03-23T09:25:43;14.07;;;2.00;;
18776;SDS011;9517;51.174;4.160;2023-03-23T09:28:10;15.30;;;2.13;;
18776;SDS011;9517;51.174;4.160;2023-03-23T09:30:39;20.77;;;3.10;;
18776;SDS011;9517;51.174;4.160;2023-03-23T09:33:08;25.87;;;3.77;;
18776;SDS011;9517;51.174;4.160;2023-03-23T09:35:36;9.13;;;1.80;;
18776;SDS011;9517;51.174;4.160;2023-03-23T09:38:07;10.83;;;1.60;;
18776;SDS011;9517;51.174;4.160;2023-03-23T09:40:38;11.93;;;2.00;;
18776;SDS011;9517;51.174;4.160;2023-03-23T09:43:17;8.57;;;1.60;;
18776;SDS011;9517;51.174;4.160;2023-03-23T09:46:14;14.17;;;2.40;;
18776;SDS011;9517;51.174;4.160;2023-03-23T09:48:58;11.80;;;1.63;;
18776;SDS011;9517;51.174;4.160;2023-03-23T09:51:34;9.17;;;1.60;;
18776;SDS011;9517;51.174;4.160;2023-03-23T09:54:10;7.03;;;1.60;;
18776;SDS011;9517;51.174;4.160;2023-03-23T09:56:45;16.20;;;1.90;;
18776;SDS011;9517;51.174;4.160;2023-03-23T09:59:15;8.93;;;1.50;;
18776;SDS011;9517;51.174;4.160;2023-03-23T10:01:47;6.33;;;1.17;;
18776;SDS011;9517;51.174;4.160;2023-03-23T10:04:19;9.90;;;2.03;;
18776;SDS011;9517;51.174;4.160;2023-03-23T10:06:58;8.80;;;1.33;;
18776;SDS011;9517;51.174;4.160;2023-03-23T10:09:26;8.00;;;1.60;;
18776;SDS011;9517;51.174;4.160;2023-03-23T10:11:57;8.23;;;1.40;;
18776;SDS011;9517;51.174;4.160;2023-03-23T10:14:39;5.73;;;1.40;;
18776;SDS011;9517;51.174;4.160;2023-03-23T10:17:16;7.53;;;1.40;;
18776;SDS011;9517;51.174;4.160;2023-03-23T10:19:50;9.23;;;1.40;;
18776;SDS011;9517;51.174;4.160;2023-03-23T10:22:23;7.87;;;1.90;;
18776;SDS011;9517;51.174;4.160;2023-03-23T10:24:57;9.83;;;1.60;;
18776;SDS011;9517;51.174;4.160;2023-03-23T10:27:31;9.77;;;1.57;;
18776;SDS011;9517;51.174;4.160;2023-03-23T10:30:10;8.83;;;1.47;;
18776;SDS011;9517;51.174;4.160;2023-03-23T10:32:43;7.53;;;1.43;;
18776;SDS011;9517;51.174;4.160;2023-03-23T10:35:16;7.13;;;1.60;;
18776;SDS011;9517;51.174;4.160;2023-03-23T10:37:48;8.73;;;1.87;;
18776;SDS011;9517;51.174;4.160;2023-03-23T10:40:19;13.23;;;2.00;;
18776;SDS011;9517;51.174;4.160;2023-03-23T10:42:50;11.57;;;2.03;;
18776;SDS011;9517;51.174;4.160;2023-03-23T10:45:20;10.47;;;1.80;;
18776;SDS011;9517;51.174;4.160;2023-03-23T10:47:52;8.03;;;1.70;;
18776;SDS011;9517;51.174;4.160;2023-03-23T10:50:23;11.33;;;2.40;;
18776;SDS011;9517;51.174;4.160;2023-03-23T10:52:54;13.30;;;2.20;;
18776;SDS011;9517;51.174;4.160;2023-03-23T10:55:24;11.63;;;2.40;;
18776;SDS011;9517;51.174;4.160;2023-03-23T10:58:03;15.43;;;2.60;;
18776;SDS011;9517;51.174;4.160;2023-03-23T11:00:31;11.77;;;2.27;;
18776;SDS011;9517;51.174;4.160;2023-03-23T11:03:00;14.37;;;2.07;;
18776;SDS011;9517;51.174;4.160;2023-03-23T11:05:34;11.10;;;1.90;;
18776;SDS011;9517;51.174;4.160;2023-03-23T11:08:11;13.60;;;2.37;;
18776;SDS011;9517;51.174;4.160;2023-03-23T11:10:40;16.47;;;2.67;;
18776;SDS011;9517;51.174;4.160;2023-03-23T11:13:13;12.93;;;2.80;;
18776;SDS011;9517;51.174;4.160;2023-03-23T11:15:42;13.53;;;2.50;;
18776;SDS011;9517;51.174;4.160;2023-03-23T11:18:12;16.97;;;2.97;;
18776;SDS011;9517;51.174;4.160;2023-03-23T11:20:48;13.23;;;2.40;;
18776;SDS011;9517;51.174;4.160;2023-03-23T11:23:22;10.07;;;2.80;;
18776;SDS011;9517;51.174;4.160;2023-03-23T11:25:54;12.50;;;2.50;;
18776;SDS011;9517;51.174;4.160;2023-03-23T11:28:25;16.47;;;2.70;;
18776;SDS011;9517;51.174;4.160;2023-03-23T11:30:56;14.27;;;2.57;;
18776;SDS011;9517;51.174;4.160;2023-03-23T11:33:28;13.57;;;2.77;;
18776;SDS011;9517;51.174;4.160;2023-03-23T11:35:56;15.73;;;2.83;;
18776;SDS011;9517;51.174;4.160;2023-03-23T11:38:26;13.07;;;2.33;;
18776;SDS011;9517;51.174;4.160;2023-03-23T11:40:53;11.83;;;2.20;;
18776;SDS011;9517;51.174;4.160;2023-03-23T11:43:22;13.37;;;2.60;;
18776;SDS011;9517;51.174;4.160;2023-03-23T11:45:54;13.70;;;2.77;;
18776;SDS011;9517;51.174;4.160;2023-03-23T11:48:29;21.40;;;3.00;;
18776;SDS011;9517;51.174;4.160;2023-03-23T11:51:05;13.73;;;2.47;;
18776;SDS011;9517;51.174;4.160;2023-03-23T11:53:42;18.03;;;2.57;;
18776;SDS011;9517;51.174;4.160;2023-03-23T11:56:19;12.57;;;2.87;;
18776;SDS011;9517;51.174;4.160;2023-03-23T11:58:50;14.57;;;2.80;;
18776;SDS011;9517;51.174;4.160;2023-03-23T12:01:35;12.73;;;2.50;;
18776;SDS011;9517;51.174;4.160;2023-03-23T12:07:08;20.23;;;3.23;;
18776;SDS011;9517;51.174;4.160;2023-03-23T12:10:06;16.50;;;2.40;;
18776;SDS011;9517;51.174;4.160;2023-03-23T12:12:45;13.23;;;2.53;;
18776;SDS011;9517;51.174;4.160;2023-03-23T12:15:19;13.07;;;2.30;;
18776;SDS011;9517;51.174;4.160;2023-03-23T12:17:54;15.57;;;2.60;;
18776;SDS011;9517;51.174;4.160;2023-03-23T12:20:30;21.33;;;3.37;;
18776;SDS011;9517;51.174;4.160;2023-03-23T12:23:17;18.07;;;2.97;;
18776;SDS011;9517;51.174;4.160;2023-03-23T12:26:00;18.33;;;2.70;;
18776;SDS011;9517;51.174;4.160;2023-03-23T12:28:40;15.30;;;2.80;;
18776;SDS011;9517;51.174;4.160;2023-03-23T12:31:18;15.00;;;2.30;;
18776;SDS011;9517;51.174;4.160;2023-03-23T12:33:54;18.63;;;3.13;;
18776;SDS011;9517;51.174;4.160;2023-03-23T12:36:37;19.63;;;2.80;;
18776;SDS011;9517;51.174;4.160;2023-03-23T12:42:11;15.33;;;2.80;;
18776;SDS011;9517;51.174;4.160;2023-03-23T12:44:45;18.47;;;3.20;;
18776;SDS011;9517;51.174;4.160;2023-03-23T12:47:20;21.97;;;3.20;;
18776;SDS011;9517;51.174;4.160;2023-03-23T12:49:56;16.10;;;3.70;;
18776;SDS011;9517;51.174;4.160;2023-03-23T12:52:28;13.20;;;2.30;;
18776;SDS011;9517;51.174;4.160;2023-03-23T12:55:01;17.20;;;2.80;;
18776;SDS011;9517;51.174;4.160;2023-03-23T12:57:35;21.17;;;3.50;;
18776;SDS011;9517;51.174;4.160;2023-03-23T13:00:14;20.53;;;3.40;;
18776;SDS011;9517;51.174;4.160;2023-03-23T13:02:48;17.63;;;2.73;;
18776;SDS011;9517;51.174;4.160;2023-03-23T13:05:27;14.63;;;2.90;;
18776;SDS011;9517;51.174;4.160;2023-03-23T13:08:02;16.47;;;2.97;;
18776;SDS011;9517;51.174;4.160;2023-03-23T13:10:33;14.17;;;2.40;;
18776;SDS011;9517;51.174;4.160;2023-03-23T13:13:09;16.43;;;3.47;;
18776;SDS011;9517;51.174;4.160;2023-03-23T13:15:43;16.33;;;2.77;;
18776;SDS011;9517;51.174;4.160;2023-03-23T13:18:19;13.70;;;2.50;;
18776;SDS011;9517;51.174;4.160;2023-03-23T13:20:54;14.87;;;2.60;;
18776;SDS011;9517;51.174;4.160;2023-03-23T13:23:28;12.87;;;2.43;;
18776;SDS011;9517;51.174;4.160;2023-03-23T13:26:02;15.70;;;2.50;;
18776;SDS011;9517;51.174;4.160;2023-03-23T13:28:34;21.50;;;;;
18776;SDS011;9517;51.174;4.160;2023-03-23T13:31:16;17.27;;;2.80;;
18776;SDS011;9517;51.174;4.160;2023-03-23T13:33:50;13.27;;;2.27;;
18776;SDS011;9517;51.174;4.160;2023-03-23T13:36:29;16.33;;;2.60;;
18776;SDS011;9517;51.174;4.160;2023-03-23T13:38:58;15.77;;;2.47;;
18776;SDS011;9517;51.174;4.160;2023-03-23T13:41:29;14.20;;;2.47;;
18776;SDS011;9517;51.174;4.160;2023-03-23T13:44:16;17.47;;;3.03;;
18776;SDS011;9517;51.174;4.160;2023-03-23T13:46:55;14.47;;;2.73;;
18776;SDS011;9517;51.174;4.160;2023-03-23T13:49:24;13.17;;;3.07;;
18776;SDS011;9517;51.174;4.160;2023-03-23T13:52:13;17.93;;;3.03;;
18776;SDS011;9517;51.174;4.160;2023-03-23T13:54:43;20.17;;;3.00;;
18776;SDS011;9517;51.174;4.160;2023-03-23T13:57:24;13.27;;;2.60;;
18776;SDS011;9517;51.174;4.160;2023-03-23T14:00:09;19.10;;;3.50;;
18776;SDS011;9517;51.174;4.160;2023-03-23T14:02:48;18.17;;;2.80;;
18776;SDS011;9517;51.174;4.160;2023-03-23T14:08:03;14.00;;;2.50;;
18776;SDS011;9517;51.174;4.160;2023-03-23T14:10:39;11.23;;;2.13;;
18776;SDS011;9517;51.174;4.160;2023-03-23T14:13:15;13.77;;;2.70;;
18776;SDS011;9517;51.174;4.160;2023-03-23T14:15:57;12.77;;;2.30;;
18776;SDS011;9517;51.174;4.160;2023-03-23T14:18:27;10.13;;;2.17;;
18776;SDS011;9517;51.174;4.160;2023-03-23T14:20:58;13.13;;;2.60;;
18776;SDS011;9517;51.174;4.160;2023-03-23T14:23:26;13.53;;;2.30;;
18776;SDS011;9517;51.174;4.160;2023-03-23T14:25:58;10.60;;;2.13;;
18776;SDS011;9517;51.174;4.160;2023-03-23T14:28:32;14.13;;;2.70;;
18776;SDS011;9517;51.174;4.160;2023-03-23T14:31:07;17.70;;;2.50;;
18776;SDS011;9517;51.174;4.160;2023-03-23T14:33:42;10.93;;;2.03;;
18776;SDS011;9517;51.174;4.160;2023-03-23T14:36:09;10.63;;;1.70;;
18776;SDS011;9517;51.174;4.160;2023-03-23T14:38:37;12.07;;;2.00;;
18776;SDS011;9517;51.174;4.160;2023-03-23T14:41:04;11.53;;;2.10;;
18776;SDS011;9517;51.174;4.160;2023-03-23T14:43:33;11.43;;;2.20;;
18776;SDS011;9517;51.174;4.160;2023-03-23T14:46:03;14.77;;;2.53;;
18776;SDS011;9517;51.174;4.160;2023-03-23T14:48:35;10.03;;;2.40;;
18776;SDS011;9517;51.174;4.160;2023-03-23T14:51:03;14.47;;;2.63;;
18776;SDS011;9517;51.174;4.160;2023-03-23T14:53:33;16.70;;;2.67;;
18776;SDS011;9517;51.174;4.160;2023-03-23T14:56:03;15.30;;;2.50;;
18776;SDS011;9517;51.174;4.160;2023-03-23T14:58:35;14.53;;;3.00;;
18776;SDS011;9517;51.174;4.160;2023-03-23T15:01:04;12.13;;;2.67;;
18776;SDS011;9517;51.174;4.160;2023-03-23T15:03:37;13.43;;;2.50;;
18776;SDS011;9517;51.174;4.160;2023-03-23T15:06:10;21.37;;;3.90;;
18776;SDS011;9517;51.174;4.160;2023-03-23T15:08:41;15.73;;;3.17;;
18776;SDS011;9517;51.174;4.160;2023-03-23T15:11:11;16.03;;;3.07;;
18776;SDS011;9517;51.174;4.160;2023-03-23T15:13:50;18.47;;;3.00;;
18776;SDS011;9517;51.174;4.160;2023-03-23T15:16:22;17.43;;;3.07;;
18776;SDS011;9517;51.174;4.160;2023-03-23T15:18:53;17.50;;;3.20;;
18776;SDS011;9517;51.174;4.160;2023-03-23T15:21:24;16.57;;;2.73;;
18776;SDS011;9517;51.174;4.160;2023-03-23T15:23:54;14.97;;;2.97;;
18776;SDS011;9517;51.174;4.160;2023-03-23T15:26:27;17.23;;;2.97;;
18776;SDS011;9517;51.174;4.160;2023-03-23T15:29:04;14.00;;;2.40;;